Arkona, Germany

10:59 PM CEST on August 29, 2015 (GMT +0200)
Ostsee Wetterstation Klaarkiming | | Change Station
CLOSE
Current Station
Personal Weather Station
Location: Breege, MECKLENBURG-VORPOMMERN
Elevation: 0 ft
Nearby Weather Stations

Elev 0 ft 54.62 °N, 13.37 °E | Updated 12 minutes ago

Clear
Clear
59.0 °F
Feels Like 59.0 °F
N
2.0
Wind Variable Wind from NE
Gusts 5.0 mph

Today
High -- | Low -- °F
--% Chance of Precip.
Yesterday
High -- | Low -- °F
Precip. -- in
6:06 AM 8:06 PM
Full, 100% visible
Pressure 30.21 in
Visibility 6.2 miles
Clouds
Dew Point 54 °F
Humidity 83%
Rainfall 0.00 in
Snow Depth Not available.
UV 0.0 out of 12
Pollen Not available.
Air Quality Not available.
Flu Activity Not available.
METAR EKRN 292050Z AUTO 18005KT 9999NDV NCD 14/12 Q1023
Pressure 30.21 in
Visibility 6.2 miles
Clouds
Dew Point 54 °F
Humidity 83%
Rainfall 0.00 in
Snow Depth Not available.
UV 0.0 out of 12
Pollen Not available.
Air Quality Not available.
Flu Activity Not available.
METAR EKRN 292050Z AUTO 18005KT 9999NDV NCD 14/12 Q1023

10-Day Weather Forecast

×

Almanac

Astronomy

Aug. 29, 2015 Rise Set
Actual Time
Civil Twilight
Nautical Twilight
Astronomical Twilight
Moon
Length of Visible Light
Length of Day
Tomorrow will be .
, % of the Moon is Illuminated

Today's Extremes

Country Highs Country Lows

Community

WunderPhotos

Upload Photos

1,850,793 photos uploaded!

WunderBlogs® & News

Nearby

Air Quality

  Air Quality AQ Index Pollutant
Not available.

Snow Depth

Station Depth Elevation

Earthquake Activity

City Distance Mag. Time & Date
Minimum magnitude displayed is 2.5.

Coastal Water Temperatures

Place Temperature

Stations

Nearby Weather Stations

Station Location Temp. Windchill Dew Point Humidity Wind Precip. Elev Updated Type